Alcove, New York
Current Conditions -  °F | °C
As of 11:33 PM on Monday 22 Dec 2014 (Local Time) from KALB Reporting Station
Ice Pellets Ice Pellets  
Wind Chill: 34°   Ceiling: 2000
Heat Index: 34°   Visibility: 10mi
Dew Point: 28°   Wind: 3mph
Humidity: 79%   Direction: 20°NNE
Pressure: 30.23"   Gusts: NA
Location:  42.47°N, 73.93°W
Report Text: KALB 230433Z 02003KT 10SM -PL OVC020 01/M02 A3023 RMK AO2 PLB32 P0000 T00111022
Loading
Personal Weather Stations






























Interactive Weather Map New forecast layout! Learn more

10-Day Weather Forecast

Advertisements
Track Severe Weather on mobile